Time;durP1;ratioP1;P1;durP2;ratioP2;P2;SDS_P1;SDS_P2;PMS_P1;PMS_P2;Temp;Humidity;BMP_temperature;BMP_pressure;BME280_temperature;BME280_humidity;BME280_pressure;Samples;Min_cycle;Max_cycle;Signal;HPM_P1;HPM_P2
2023/09/19 00:00:57;;;;;;;12.55;8.00;;;20.10;83.50;;;;;;5054853;28;20017;-69
2023/09/19 00:03:25;;;;;;;13.10;8.68;;;20.10;83.50;;;;;;5055154;28;20478;-68
2023/09/19 00:05:51;;;;;;;16.02;8.70;;;20.10;83.50;;;;;;5054860;28;20083;-68
2023/09/19 00:08:24;;;;;;;11.05;7.72;;;20.10;83.40;;;;;;5054607;28;20029;-68
2023/09/19 00:13:19;;;;;;;15.93;8.40;;;20.10;83.40;;;;;;5054552;28;20378;-68
2023/09/19 00:18:10;;;;;;;14.20;8.32;;;20.10;83.40;;;;;;5055068;28;20036;-69
2023/09/19 00:20:41;;;;;;;13.30;9.05;;;20.10;83.40;;;;;;5054371;28;20029;-68
2023/09/19 00:23:08;;;;;;;12.68;8.13;;;20.00;83.40;;;;;;5054822;28;20025;-68
2023/09/19 00:25:45;;;;;;;17.30;11.27;;;20.00;83.40;;;;;;5057982;28;20039;-68
2023/09/19 00:28:11;;;;;;;18.13;11.00;;;20.00;83.40;;;;;;5058543;28;20116;-69
2023/09/19 00:31:05;;;;;;;16.77;9.68;;;20.00;83.40;;;;;;5057951;28;20348;-68
2023/09/19 00:33:32;;;;;;;13.05;8.90;;;19.90;83.30;;;;;;5058431;28;20032;-68
2023/09/19 00:35:59;;;;;;;15.38;9.15;;;19.90;83.50;;;;;;5057844;28;20025;-68
2023/09/19 00:38:27;;;;;;;14.68;8.32;;;19.90;83.50;;;;;;5057764;28;20096;-68
2023/09/19 00:41:08;;;;;;;18.05;10.05;;;19.90;83.50;;;;;;5058174;28;20052;-68
2023/09/19 00:43:43;;;;;;;12.48;8.25;;;19.90;83.50;;;;;;5057722;28;20064;-68
2023/09/19 00:46:17;;;;;;;15.57;8.80;;;19.90;83.40;;;;;;5057973;28;20036;-68
2023/09/19 00:48:48;;;;;;;21.25;10.88;;;19.90;83.50;;;;;;5058145;28;20104;-69
2023/09/19 00:51:20;;;;;;;20.27;9.57;;;19.80;83.50;;;;;;5057635;28;20021;-68
2023/09/19 00:59:30;;;;;;;15.40;9.15;;;19.70;83.30;;;;;;5057669;28;20439;-68
2023/09/19 01:01:56;;;;;;;11.88;7.93;;;19.70;83.30;;;;;;5057296;28;20450;-68
2023/09/19 01:04:35;;;;;;;14.85;8.35;;;19.60;83.40;;;;;;5039942;28;20032;-68
2023/09/19 01:07:05;;;;;;;13.70;8.45;;;19.60;83.40;;;;;;5057200;28;20040;-67
2023/09/19 01:09:46;;;;;;;14.77;9.60;;;19.60;83.40;;;;;;5057082;28;20063;-68
2023/09/19 01:12:42;;;;;;;15.15;8.23;;;19.60;83.50;;;;;;5057675;28;20029;-69
2023/09/19 01:15:36;;;;;;;16.30;8.98;;;19.60;83.60;;;;;;5057121;28;20040;-68
2023/09/19 01:21:44;;;;;;;15.63;7.32;;;19.50;83.60;;;;;;5057320;28;20108;-67
2023/09/19 01:24:47;;;;;;;13.07;7.75;;;19.50;83.50;;;;;;5057238;28;20036;-68
2023/09/19 01:27:39;;;;;;;11.75;7.30;;;19.40;83.40;;;;;;5056918;28;20029;-68
2023/09/19 01:30:17;;;;;;;15.93;7.18;;;19.40;83.50;;;;;;5057005;28;20028;-68
2023/09/19 01:32:46;;;;;;;15.77;8.05;;;19.40;83.50;;;;;;5057060;28;20029;-68
2023/09/19 01:35:22;;;;;;;14.00;7.78;;;19.40;83.50;;;;;;5056026;28;20025;-68
2023/09/19 01:37:53;;;;;;;17.08;8.02;;;19.40;83.50;;;;;;5057320;28;20470;-67
2023/09/19 01:40:22;;;;;;;16.52;8.45;;;19.40;83.50;;;;;;5056491;28;20025;-68
2023/09/19 01:43:17;;;;;;;14.35;8.18;;;19.30;83.50;;;;;;5056647;28;20078;-68
2023/09/19 01:46:25;;;;;;;14.25;8.57;;;19.30;83.50;;;;;;5056894;28;20324;-68
2023/09/19 01:49:09;;;;;;;15.13;8.02;;;19.20;83.60;;;;;;5057019;28;20101;-68
2023/09/19 01:52:34;;;;;;;11.43;7.38;;;19.30;83.60;;;;;;5056677;28;20187;-68
2023/09/19 01:55:14;;;;;;;14.95;9.02;;;19.20;83.50;;;;;;4976175;28;20110;-69
2023/09/19 01:58:31;;;;;;;12.98;7.65;;;19.20;83.60;;;;;;4976000;28;20143;-68
2023/09/19 02:01:12;;;;;;;19.38;9.52;;;19.20;83.50;;;;;;4974931;28;20066;-68
2023/09/19 02:03:46;;;;;;;19.23;7.68;;;19.10;83.50;;;;;;4975802;28;20520;-68
2023/09/19 02:08:57;;;;;;;15.55;8.63;;;19.10;83.50;;;;;;4976185;28;20046;-68
2023/09/19 02:11:36;;;;;;;17.55;8.63;;;19.00;83.50;;;;;;4975820;28;20046;-69
2023/09/19 02:14:04;;;;;;;14.95;9.27;;;19.10;83.60;;;;;;4975132;28;20054;-68
2023/09/19 02:16:34;;;;;;;15.48;8.00;;;19.10;83.60;;;;;;4975520;28;20030;-68
2023/09/19 02:19:05;;;;;;;14.77;8.43;;;19.10;83.60;;;;;;4975814;28;20532;-69
2023/09/19 02:21:31;;;;;;;16.52;8.27;;;19.10;83.50;;;;;;4975501;28;20031;-68
2023/09/19 02:24:02;;;;;;;16.25;8.65;;;19.10;83.50;;;;;;5000950;28;20030;-68
2023/09/19 02:26:29;;;;;;;11.57;7.35;;;19.10;83.60;;;;;;5016085;28;20025;-68
2023/09/19 02:28:59;;;;;;;14.88;8.90;;;19.10;83.60;;;;;;5016041;28;20468;-68
2023/09/19 02:31:29;;;;;;;16.30;8.50;;;19.10;83.60;;;;;;5016089;28;20029;-68
2023/09/19 02:34:16;;;;;;;13.98;7.90;;;19.10;83.40;;;;;;5015909;28;20088;-68
2023/09/19 02:36:45;;;;;;;15.50;8.23;;;19.10;83.40;;;;;;5015968;28;20429;-68
2023/09/19 02:39:16;;;;;;;11.73;7.32;;;19.00;83.40;;;;;;5016174;28;20085;-68
2023/09/19 02:44:24;;;;;;;16.88;8.75;;;19.00;83.40;;;;;;5016738;28;20041;-68
2023/09/19 02:46:54;;;;;;;21.25;8.40;;;18.90;83.40;;;;;;5015936;28;20026;-68
2023/09/19 02:49:21;;;;;;;11.98;7.82;;;18.90;83.40;;;;;;5015687;28;20049;-68
2023/09/19 02:51:54;;;;;;;16.77;8.80;;;18.90;83.40;;;;;;5016225;28;20030;-68
2023/09/19 02:57:06;;;;;;;15.77;8.43;;;18.90;83.50;;;;;;5016467;28;20080;-68
2023/09/19 02:59:32;;;;;;;12.48;7.63;;;18.90;83.50;;;;;;5016126;28;20440;-68
2023/09/19 03:02:00;;;;;;;12.15;7.80;;;18.90;83.50;;;;;;5015578;28;20018;-68
2023/09/19 03:04:30;;;;;;;13.57;8.25;;;18.80;83.50;;;;;;5015584;28;20041;-67
2023/09/19 03:07:04;;;;;;;17.00;8.15;;;18.80;83.50;;;;;;5015728;28;20025;-68
2023/09/19 03:09:32;;;;;;;13.95;7.40;;;18.80;83.50;;;;;;5015426;28;20092;-68
2023/09/19 03:12:07;;;;;;;12.02;6.90;;;18.80;83.50;;;;;;5015976;28;20022;-68
2023/09/19 03:14:35;;;;;;;16.10;8.27;;;18.70;83.50;;;;;;5044408;28;20044;-68
2023/09/19 03:17:04;;;;;;;12.20;7.20;;;18.70;83.50;;;;;;5055294;28;20029;-68
2023/09/19 03:19:33;;;;;;;12.10;6.88;;;18.60;83.50;;;;;;5054785;28;20028;-68
2023/09/19 03:22:07;;;;;;;16.27;9.15;;;18.70;83.50;;;;;;5055037;28;20027;-68
2023/09/19 03:24:53;;;;;;;18.42;10.10;;;18.60;83.50;;;;;;5055024;28;20041;-68
2023/09/19 03:27:20;;;;;;;12.00;7.43;;;18.60;83.50;;;;;;5054948;28;20032;-68
2023/09/19 03:29:55;;;;;;;13.20;7.95;;;18.60;83.50;;;;;;5054806;28;20064;-69
2023/09/19 03:32:24;;;;;;;15.35;7.82;;;18.50;83.50;;;;;;5054675;28;20044;-68
2023/09/19 03:34:51;;;;;;;14.70;8.05;;;18.50;83.60;;;;;;5054912;28;20021;-68
2023/09/19 03:37:17;;;;;;;14.30;7.72;;;18.50;83.60;;;;;;5054785;28;20024;-68
2023/09/19 03:39:45;;;;;;;14.02;7.47;;;18.50;83.50;;;;;;5055266;28;20416;-67
2023/09/19 03:42:26;;;;;;;13.82;7.60;;;18.50;83.60;;;;;;5055371;28;20025;-68
2023/09/19 03:44:55;;;;;;;14.55;8.20;;;18.50;83.60;;;;;;5054728;28;20068;-68
2023/09/19 03:47:22;;;;;;;11.57;7.15;;;18.50;83.60;;;;;;5054707;28;20048;-67
2023/09/19 03:49:55;;;;;;;10.13;6.78;;;18.40;83.60;;;;;;5054655;28;20025;-68
2023/09/19 03:52:21;;;;;;;12.68;6.80;;;18.40;83.60;;;;;;5055212;28;20021;-68
2023/09/19 03:54:57;;;;;;;15.63;8.15;;;18.40;83.60;;;;;;5055222;28;20104;-68
2023/09/19 03:57:25;;;;;;;16.35;8.60;;;18.40;83.60;;;;;;5054604;28;20105;-68
2023/09/19 03:59:54;;;;;;;11.68;7.13;;;18.40;83.50;;;;;;5057742;28;20122;-67
2023/09/19 04:02:25;;;;;;;12.50;6.78;;;18.30;83.40;;;;;;5058445;28;20067;-68
2023/09/19 04:04:53;;;;;;;11.02;6.30;;;18.20;83.50;;;;;;5058705;28;20115;-68
2023/09/19 04:07:25;;;;;;;12.40;7.30;;;18.20;83.60;;;;;;5058308;28;20031;-68
2023/09/19 04:10:09;;;;;;;10.05;6.45;;;18.20;83.60;;;;;;5058829;28;20025;-68
2023/09/19 04:12:35;;;;;;;9.77;5.95;;;18.20;83.70;;;;;;5058136;28;20473;-68
2023/09/19 04:15:13;;;;;;;11.13;5.95;;;18.10;83.60;;;;;;5058059;28;20045;-67
2023/09/19 04:17:55;;;;;;;10.68;6.50;;;18.10;83.70;;;;;;5058793;28;20017;-68
2023/09/19 04:20:27;;;;;;;12.27;7.32;;;18.10;83.70;;;;;;5058659;28;20017;-68
2023/09/19 04:23:00;;;;;;;13.77;6.70;;;18.10;83.70;;;;;;5058097;28;20029;-67
2023/09/19 04:25:30;;;;;;;12.05;5.63;;;18.10;83.70;;;;;;5058044;28;20040;-68
2023/09/19 04:28:06;;;;;;;11.73;6.38;;;18.10;83.70;;;;;;5057868;28;20573;-68
2023/09/19 04:30:32;;;;;;;12.40;7.72;;;18.10;83.60;;;;;;5057734;28;20044;-67
2023/09/19 04:33:01;;;;;;;10.68;5.90;;;18.00;83.60;;;;;;5057778;28;20025;-68
2023/09/19 04:35:31;;;;;;;17.15;6.20;;;18.00;83.60;;;;;;5040289;28;20398;-67
2023/09/19 04:37:57;;;;;;;11.77;5.90;;;18.00;83.60;;;;;;5057750;28;20439;-68
2023/09/19 04:40:26;;;;;;;11.30;6.57;;;18.00;83.70;;;;;;5057959;28;20047;-68
2023/09/19 04:43:10;;;;;;;12.10;6.47;;;17.90;83.70;;;;;;5056741;28;20048;-68
2023/09/19 04:45:39;;;;;;;14.68;6.28;;;18.00;83.70;;;;;;5057917;28;20052;-68
2023/09/19 04:48:08;;;;;;;9.45;5.93;;;18.00;83.70;;;;;;5057563;28;20339;-67
2023/09/19 04:50:35;;;;;;;11.50;7.90;;;18.00;83.60;;;;;;5057757;28;20021;-68
2023/09/19 04:53:01;;;;;;;15.60;7.50;;;17.90;83.60;;;;;;5039815;28;20086;-68
2023/09/19 04:55:27;;;;;;;14.23;6.75;;;17.90;83.60;;;;;;5057419;28;20359;-68
2023/09/19 04:57:55;;;;;;;13.90;7.47;;;17.90;83.60;;;;;;5057947;28;20017;-68
2023/09/19 05:00:27;;;;;;;13.60;7.38;;;17.90;83.60;;;;;;5057249;28;20474;-68
2023/09/19 05:03:14;;;;;;;11.75;6.63;;;17.80;83.50;;;;;;5057229;28;20423;-68
2023/09/19 05:05:43;;;;;;;14.32;7.25;;;17.80;83.50;;;;;;5057822;28;20028;-68
2023/09/19 05:08:09;;;;;;;11.57;6.60;;;17.70;83.60;;;;;;5057769;28;20029;-68
2023/09/19 05:10:38;;;;;;;11.07;6.03;;;17.70;83.70;;;;;;5057048;28;20021;-69
2023/09/19 05:13:05;;;;;;;12.45;5.88;;;17.80;83.80;;;;;;5056855;28;20029;-69
2023/09/19 05:15:36;;;;;;;10.15;5.68;;;17.80;83.80;;;;;;5057404;28;20112;-68
2023/09/19 05:20:36;;;;;;;12.52;6.40;;;18.00;83.70;;;;;;5057311;28;20032;-68
2023/09/19 05:28:26;;;;;;;12.10;6.20;;;18.40;83.70;;;;;;5057664;28;20401;-68
2023/09/19 05:30:55;;;;;;;11.77;6.25;;;19.20;83.60;;;;;;5056696;28;20032;-68
2023/09/19 05:33:21;;;;;;;11.43;6.10;;;20.20;82.70;;;;;;5056706;28;20565;-68
2023/09/19 05:35:50;;;;;;;10.93;6.57;;;21.10;80.90;;;;;;5056721;28;20379;-68
2023/09/19 05:38:19;;;;;;;10.45;5.72;;;22.00;78.90;;;;;;5056611;28;20025;-64
2023/09/19 05:40:45;;;;;;;12.52;6.07;;;22.90;77.70;;;;;;5056462;28;20028;-65
2023/09/19 05:43:14;;;;;;;11.55;6.28;;;23.90;76.20;;;;;;5057083;28;20033;-64
2023/09/19 05:45:40;;;;;;;14.45;5.70;;;24.80;74.30;;;;;;5038903;28;20021;-66
2023/09/19 05:48:15;;;;;;;8.65;5.55;;;25.80;72.20;;;;;;5056423;28;20075;-64
2023/09/19 05:50:42;;;;;;;13.15;5.68;;;26.60;69.90;;;;;;5056379;28;20029;-64
2023/09/19 05:53:10;;;;;;;8.40;5.00;;;27.10;68.10;;;;;;5056328;28;20028;-65
2023/09/19 05:55:36;;;;;;;10.50;5.80;;;27.50;67.50;;;;;;5022692;28;20020;-68
2023/09/19 05:58:03;;;;;;;9.95;5.50;;;28.30;65.40;;;;;;5056524;28;20025;-68
2023/09/19 06:00:32;;;;;;;13.45;6.13;;;29.00;63.00;;;;;;5056185;28;20025;-70
2023/09/19 06:03:12;;;;;;;15.35;5.85;;;29.80;62.20;;;;;;5056473;28;20355;-70
2023/09/19 06:05:41;;;;;;;10.57;5.45;;;30.40;60.90;;;;;;5056736;28;20033;-70
2023/09/19 06:08:07;;;;;;;9.35;5.32;;;31.00;59.40;;;;;;5056661;28;20029;-69
2023/09/19 06:10:34;;;;;;;8.43;4.93;;;31.60;58.30;;;;;;5056015;28;20021;-69
2023/09/19 06:13:05;;;;;;;10.18;5.53;;;32.20;56.60;;;;;;5055589;28;20025;-73
2023/09/19 06:15:33;;;;;;;6.63;4.88;;;32.70;55.20;;;;;;5056262;28;20060;-73
2023/09/19 06:17:59;;;;;;;14.02;5.70;;;33.20;54.30;;;;;;5056198;28;20025;-69
2023/09/19 06:20:26;;;;;;;9.13;5.45;;;33.80;53.30;;;;;;5055784;28;20461;-69
2023/09/19 06:22:56;;;;;;;10.00;5.53;;;34.40;52.20;;;;;;5055498;28;20471;-69
2023/09/19 06:25:23;;;;;;;9.35;5.80;;;34.90;50.90;;;;;;5056240;28;20036;-73
2023/09/19 06:27:54;;;;;;;12.43;5.35;;;35.50;49.70;;;;;;5056373;28;20218;-72
2023/09/19 06:30:23;;;;;;;9.38;5.57;;;36.10;48.80;;;;;;5055893;28;20025;-72
2023/09/19 06:32:49;;;;;;;10.27;4.65;;;36.60;47.90;;;;;;5038086;28;20040;-74
2023/09/19 06:35:17;;;;;;;9.73;4.70;;;37.20;46.80;;;;;;5055695;28;20009;-70
2023/09/19 06:37:43;;;;;;;8.07;4.70;;;37.70;46.10;;;;;;5055655;28;20502;-70
2023/09/19 06:40:16;;;;;;;9.35;4.93;;;38.20;44.50;;;;;;5055522;28;20068;-65
2023/09/19 06:42:45;;;;;;;11.68;4.57;;;38.60;43.70;;;;;;5055528;28;20493;-69
2023/09/19 06:45:18;;;;;;;7.60;4.13;;;39.00;43.30;;;;;;5021850;28;20478;-69
2023/09/19 06:47:51;;;;;;;7.70;3.90;;;39.50;42.80;;;;;;5055775;28;20033;-69
2023/09/19 06:50:20;;;;;;;6.80;3.88;;;40.00;42.00;;;;;;5055380;28;20052;-68
2023/09/19 06:52:51;;;;;;;6.75;3.40;;;40.50;41.70;;;;;;5055608;28;20044;-70
2023/09/19 06:55:24;;;;;;;6.70;3.93;;;40.90;41.10;;;;;;5055586;28;20021;-72
2023/09/19 06:57:50;;;;;;;7.38;3.47;;;41.00;39.10;;;;;;5055235;28;20100;-69
2023/09/19 07:00:21;;;;;;;8.70;4.00;;;41.10;38.50;;;;;;5055328;28;20048;-69
2023/09/19 07:03:13;;;;;;;9.40;3.70;;;41.10;38.30;;;;;;5055117;28;20056;-71
2023/09/19 07:05:40;;;;;;;6.85;3.83;;;41.00;37.30;;;;;;5038848;28;20052;-69
2023/09/19 07:08:10;;;;;;;7.45;3.90;;;41.00;37.90;;;;;;5055170;28;20024;-69
2023/09/19 07:10:43;;;;;;;6.70;3.60;;;40.80;37.70;;;;;;5055025;28;20033;-69
2023/09/19 07:13:10;;;;;;;9.40;4.70;;;40.60;37.20;;;;;;5037244;28;20127;-70
2023/09/19 07:15:39;;;;;;;14.20;5.32;;;40.80;37.50;;;;;;5055118;28;20086;-69
2023/09/19 07:18:10;;;;;;;11.02;4.78;;;40.80;37.10;;;;;;5037482;28;20020;-71
2023/09/19 07:20:49;;;;;;;8.02;4.28;;;40.50;36.40;;;;;;5055032;28;20057;-70
2023/09/19 07:23:20;;;;;;;6.33;4.60;;;40.50;36.30;;;;;;5055023;28;20451;-71
2023/09/19 07:25:47;;;;;;;8.45;4.40;;;40.60;36.30;;;;;;5054977;28;20029;-71
2023/09/19 07:28:16;;;;;;;9.65;4.95;;;40.80;36.70;;;;;;5037478;28;20362;-68
2023/09/19 07:30:44;;;;;;;7.93;4.97;;;40.30;35.70;;;;;;5054887;28;20063;-70
2023/09/19 07:33:19;;;;;;;11.40;5.18;;;39.40;36.60;;;;;;5055354;28;20065;-70
2023/09/19 07:35:47;;;;;;;11.23;5.10;;;38.80;35.30;;;;;;5059051;28;20074;-67
2023/09/19 07:38:13;;;;;;;8.30;4.50;;;38.40;38.70;;;;;;5058895;28;20035;-67
2023/09/19 07:40:40;;;;;;;7.93;3.95;;;38.10;39.90;;;;;;5058947;28;20017;-68
2023/09/19 07:43:08;;;;;;;7.85;3.70;;;38.00;40.30;;;;;;5059163;28;20080;-68
2023/09/19 07:45:36;;;;;;;9.45;3.80;;;38.00;40.80;;;;;;5058824;28;20033;-67
2023/09/19 07:48:14;;;;;;;6.50;3.70;;;37.90;41.10;;;;;;5058748;28;20036;-67
2023/09/19 07:50:43;;;;;;;10.07;4.30;;;37.60;41.40;;;;;;5058932;28;20053;-67
2023/09/19 07:53:13;;;;;;;7.13;4.00;;;36.90;42.00;;;;;;5058598;28;20025;-66
2023/09/19 07:55:41;;;;;;;9.50;3.85;;;36.30;42.90;;;;;;5058928;28;20027;-68
2023/09/19 07:58:08;;;;;;;7.78;3.75;;;35.90;43.00;;;;;;5058735;28;20104;-67
2023/09/19 08:00:38;;;;;;;9.48;3.88;;;35.30;44.20;;;;;;5058527;28;20036;-67
2023/09/19 08:03:06;;;;;;;6.93;3.78;;;34.50;45.10;;;;;;5059067;28;20049;-68
2023/09/19 08:05:36;;;;;;;5.45;3.30;;;34.00;46.30;;;;;;5058409;28;20078;-67
2023/09/19 08:08:07;;;;;;;8.88;3.90;;;33.70;46.50;;;;;;5058955;28;20021;-68
2023/09/19 08:10:35;;;;;;;8.60;4.63;;;33.50;46.00;;;;;;5058034;28;20047;-67
2023/09/19 08:13:02;;;;;;;7.47;4.00;;;33.30;45.90;;;;;;5058267;28;20116;-67
2023/09/19 08:15:28;;;;;;;8.23;4.43;;;32.80;46.70;;;;;;5058637;28;20049;-67
2023/09/19 08:17:56;;;;;;;10.10;4.72;;;32.50;47.30;;;;;;5058260;28;20061;-68
2023/09/19 08:20:22;;;;;;;11.48;5.75;;;32.30;47.20;;;;;;5058345;28;20057;-67
2023/09/19 08:23:03;;;;;;;11.38;6.05;;;32.00;47.50;;;;;;5058408;28;20036;-67
2023/09/19 08:25:31;;;;;;;11.73;5.15;;;31.40;48.50;;;;;;5058104;28;20037;-70
2023/09/19 08:28:01;;;;;;;10.75;4.65;;;30.90;49.50;;;;;;5058101;28;20503;-70
2023/09/19 08:30:30;;;;;;;9.10;5.03;;;30.60;50.30;;;;;;5057982;28;20085;-69
2023/09/19 08:33:19;;;;;;;9.80;4.22;;;30.50;50.40;;;;;;5057861;28;20463;-69
2023/09/19 08:35:46;;;;;;;11.43;5.32;;;30.00;51.20;;;;;;5056319;28;20057;-69
2023/09/19 08:38:14;;;;;;;11.02;4.78;;;30.00;51.90;;;;;;5057902;28;20078;-69
2023/09/19 08:40:43;;;;;;;11.27;6.05;;;29.90;52.30;;;;;;5057723;28;20102;-69
2023/09/19 08:43:12;;;;;;;10.98;6.25;;;29.90;52.40;;;;;;5057898;28;20025;-69
2023/09/19 08:45:39;;;;;;;10.57;5.72;;;29.60;52.70;;;;;;5057507;28;20044;-69
2023/09/19 08:48:28;;;;;;;10.65;4.97;;;29.40;53.40;;;;;;5057743;28;20031;-68
2023/09/19 08:51:07;;;;;;;10.40;5.50;;;29.10;54.40;;;;;;5057660;28;20439;-70
2023/09/19 08:56:10;;;;;;;10.65;5.90;;;29.00;54.90;;;;;;5052820;28;20044;-68
2023/09/19 08:59:11;;;;;;;10.95;5.13;;;29.00;54.90;;;;;;5039942;28;20032;-69
2023/09/19 09:01:40;;;;;;;10.20;4.88;;;29.10;55.20;;;;;;5049052;28;20086;-68
2023/09/19 09:04:12;;;;;;;9.55;4.70;;;29.30;54.80;;;;;;5057359;28;20028;-69
2023/09/19 09:06:40;;;;;;;9.32;3.85;;;29.40;53.90;;;;;;5057984;28;20115;-69
2023/09/19 09:09:10;;;;;;;8.35;5.00;;;29.50;53.40;;;;;;5039825;28;20040;-68
2023/09/19 09:11:39;;;;;;;8.05;4.55;;;29.50;53.80;;;;;;5057306;28;20021;-69
2023/09/19 09:14:07;;;;;;;9.32;5.05;;;29.60;53.70;;;;;;5056538;28;20076;-68
2023/09/19 09:16:34;;;;;;;10.32;6.47;;;29.70;53.50;;;;;;5056988;28;20033;-69
2023/09/19 09:19:03;;;;;;;9.38;5.53;;;29.80;54.00;;;;;;5057347;28;20045;-68
2023/09/19 09:21:35;;;;;;;10.65;5.10;;;29.90;54.00;;;;;;5057640;28;20336;-69
2023/09/19 09:26:42;;;;;;;10.25;6.60;;;30.10;53.90;;;;;;5057782;28;20372;-68
2023/09/19 09:29:08;;;;;;;15.65;8.13;;;30.20;53.50;;;;;;5057172;28;20033;-67
2023/09/19 09:31:34;;;;;;;13.88;8.10;;;30.10;53.80;;;;;;5056872;28;20331;-68
2023/09/19 09:34:01;;;;;;;14.05;7.13;;;30.00;54.20;;;;;;5056825;28;20025;-69
2023/09/19 09:36:36;;;;;;;11.73;5.90;;;29.90;54.50;;;;;;5057358;28;20025;-67
2023/09/19 09:39:24;;;;;;;14.20;7.55;;;29.90;54.70;;;;;;5039142;28;20380;-69
2023/09/19 09:41:52;;;;;;;10.75;6.00;;;29.90;54.70;;;;;;5057312;28;20021;-69
2023/09/19 09:44:22;;;;;;;11.40;6.68;;;29.90;54.80;;;;;;5056622;28;20380;-68
2023/09/19 09:49:36;;;;;;;9.77;5.88;;;30.30;54.50;;;;;;5056539;28;20028;-69
2023/09/19 09:52:07;;;;;;;12.27;6.20;;;30.40;54.00;;;;;;5057131;28;20029;-69
2023/09/19 09:54:38;;;;;;;9.45;6.22;;;30.40;53.90;;;;;;5057198;28;20028;-68
2023/09/19 09:57:14;;;;;;;11.70;6.35;;;30.40;54.10;;;;;;5055803;28;20086;-68
2023/09/19 09:59:55;;;;;;;13.85;6.85;;;30.50;54.10;;;;;;5056686;28;20458;-68
2023/09/19 10:02:29;;;;;;;13.65;6.57;;;30.50;53.80;;;;;;5056255;28;20446;-68
2023/09/19 10:05:09;;;;;;;10.80;6.38;;;30.50;54.00;;;;;;5038727;28;20078;-69
2023/09/19 10:07:41;;;;;;;15.15;8.73;;;30.60;54.10;;;;;;5056117;28;20037;-69
2023/09/19 10:10:23;;;;;;;14.88;8.45;;;30.50;53.80;;;;;;5056361;28;20353;-69
2023/09/19 10:12:56;;;;;;;11.43;6.95;;;30.20;53.90;;;;;;5056665;28;20335;-68
2023/09/19 10:15:26;;;;;;;10.85;6.35;;;29.90;54.10;;;;;;5039257;28;20041;-68
2023/09/19 10:17:56;;;;;;;10.00;6.07;;;29.70;54.70;;;;;;5039055;28;20115;-68
2023/09/19 10:21:00;;;;;;;10.05;6.22;;;29.40;55.10;;;;;;5038346;28;20067;-68
2023/09/19 10:23:29;;;;;;;10.13;6.15;;;29.30;55.40;;;;;;5049288;28;20025;-68
2023/09/19 10:26:02;;;;;;;10.50;6.18;;;29.30;55.50;;;;;;5055868;28;20037;-68
2023/09/19 10:28:32;;;;;;;14.30;6.70;;;29.10;55.60;;;;;;5055787;28;20419;-69
2023/09/19 10:31:02;;;;;;;12.43;6.45;;;29.00;56.00;;;;;;5055741;28;20035;-68
2023/09/19 10:33:42;;;;;;;13.15;6.32;;;28.90;55.90;;;;;;5056231;28;20048;-68
2023/09/19 10:36:16;;;;;;;12.48;6.82;;;28.80;56.10;;;;;;5055999;28;20044;-69
2023/09/19 10:38:46;;;;;;;11.85;7.40;;;28.90;56.30;;;;;;5056226;28;20032;-69
2023/09/19 10:41:15;;;;;;;9.43;5.90;;;28.90;56.30;;;;;;5038510;28;20496;-69
2023/09/19 10:43:48;;;;;;;13.50;7.95;;;28.90;56.30;;;;;;5038701;28;20028;-68
2023/09/19 10:46:25;;;;;;;12.27;6.32;;;28.60;56.40;;;;;;5056130;28;20021;-68
2023/09/19 10:48:54;;;;;;;14.88;6.22;;;28.50;57.00;;;;;;5055694;28;20067;-69
2023/09/19 10:51:27;;;;;;;11.50;6.28;;;28.50;57.20;;;;;;5055352;28;20086;-69
2023/09/19 10:54:19;;;;;;;12.05;6.75;;;28.70;57.00;;;;;;5055351;28;20033;-68
2023/09/19 10:57:09;;;;;;;12.60;6.88;;;28.80;56.70;;;;;;5055364;28;20072;-68
2023/09/19 11:00:26;;;;;;;10.55;6.30;;;28.80;56.60;;;;;;5036775;28;20355;-68
2023/09/19 11:03:37;;;;;;;11.95;6.72;;;28.80;56.30;;;;;;5055322;28;20032;-68
2023/09/19 11:06:19;;;;;;;9.40;5.45;;;28.80;56.30;;;;;;5054990;28;20029;-68
2023/09/19 11:08:57;;;;;;;9.57;5.40;;;28.70;56.40;;;;;;5036344;28;20118;-69
2023/09/19 11:11:42;;;;;;;11.70;6.03;;;28.70;56.20;;;;;;5054371;28;20320;-69
2023/09/19 11:14:38;;;;;;;8.95;5.07;;;28.70;55.80;;;;;;5054248;28;20083;-68
2023/09/19 11:17:07;;;;;;;8.80;5.20;;;28.80;56.20;;;;;;4973757;28;20031;-68
2023/09/19 11:23:17;;;;;;;12.13;5.90;;;29.20;55.50;;;;;;4974271;28;20023;-68
2023/09/19 11:25:50;;;;;;;9.13;5.50;;;29.40;54.60;;;;;;4958735;28;20035;-69
2023/09/19 11:28:17;;;;;;;8.27;5.50;;;29.60;54.30;;;;;;4974833;28;20034;-69
2023/09/19 11:30:49;;;;;;;10.18;5.45;;;29.70;54.10;;;;;;4974686;28;20031;-68
2023/09/19 11:33:31;;;;;;;10.65;5.15;;;29.80;53.70;;;;;;4974587;28;20038;-69
2023/09/19 11:36:07;;;;;;;10.40;5.40;;;29.80;53.70;;;;;;4974914;28;20377;-69
2023/09/19 11:38:45;;;;;;;9.70;5.35;;;29.90;53.20;;;;;;4958671;28;20027;-69
2023/09/19 11:41:27;;;;;;;6.93;4.95;;;29.90;53.40;;;;;;4974707;28;20469;-69
2023/09/19 11:44:16;;;;;;;8.27;4.90;;;29.90;53.50;;;;;;4975069;28;20034;-68
2023/09/19 11:46:54;;;;;;;10.30;5.13;;;30.00;53.50;;;;;;4975074;28;20385;-69
2023/09/19 11:49:32;;;;;;;10.80;5.00;;;30.20;53.00;;;;;;4974459;28;20039;-68
2023/09/19 11:52:08;;;;;;;8.63;5.18;;;30.20;52.80;;;;;;4959740;28;20120;-69
2023/09/19 11:54:39;;;;;;;13.73;6.30;;;30.30;52.90;;;;;;5052274;28;20041;-69
2023/09/19 11:57:07;;;;;;;13.13;6.22;;;30.30;52.80;;;;;;5055055;28;20025;-69
2023/09/19 11:59:40;;;;;;;10.45;5.47;;;30.20;53.10;;;;;;5054675;28;20029;-69
2023/09/19 12:02:10;;;;;;;10.27;5.22;;;30.00;52.90;;;;;;5037241;28;20366;-69
2023/09/19 12:04:38;;;;;;;9.13;4.70;;;29.80;53.00;;;;;;5054707;28;20025;-69
2023/09/19 12:07:15;;;;;;;8.68;5.15;;;29.60;52.60;;;;;;5055261;28;20057;-68
2023/09/19 12:09:51;;;;;;;8.02;4.68;;;29.40;52.30;;;;;;5037076;28;20512;-68
2023/09/19 12:12:23;;;;;;;13.00;4.93;;;29.20;52.70;;;;;;5054618;28;20118;-69
2023/09/19 12:14:50;;;;;;;11.13;5.93;;;29.20;53.10;;;;;;5054487;28;20053;-68
2023/09/19 12:17:22;;;;;;;9.57;4.80;;;29.10;53.20;;;;;;5054624;28;20036;-68
2023/09/19 12:19:56;;;;;;;7.43;4.57;;;29.00;53.50;;;;;;5055978;28;20112;-69
2023/09/19 12:22:25;;;;;;;7.93;5.10;;;29.00;53.80;;;;;;5024242;28;20067;-69
2023/09/19 12:24:54;;;;;;;9.77;4.20;;;29.00;53.70;;;;;;5058396;28;20025;-69
2023/09/19 12:27:22;;;;;;;7.35;4.35;;;28.90;53.70;;;;;;5058359;28;20036;-67
2023/09/19 12:29:49;;;;;;;6.43;3.80;;;28.90;54.00;;;;;;5057968;28;20071;-68
2023/09/19 12:32:16;;;;;;;7.65;4.07;;;28.90;53.90;;;;;;5058055;28;20025;-69
2023/09/19 12:34:52;;;;;;;5.95;3.65;;;28.90;53.60;;;;;;5057857;28;20028;-68
2023/09/19 12:37:22;;;;;;;6.93;3.75;;;28.90;53.70;;;;;;5040639;28;20033;-68
2023/09/19 12:39:50;;;;;;;7.60;3.75;;;28.90;54.00;;;;;;5057752;28;20104;-69
2023/09/19 12:42:19;;;;;;;6.97;3.72;;;28.90;53.90;;;;;;5040396;28;20021;-68
2023/09/19 12:44:57;;;;;;;7.63;4.07;;;28.90;53.80;;;;;;5040223;28;20100;-69
2023/09/19 12:47:24;;;;;;;8.55;3.88;;;28.90;53.80;;;;;;5041950;28;20025;-69
2023/09/19 12:50:25;;;;;;;7.95;4.00;;;28.80;53.70;;;;;;5057947;28;20423;-68
2023/09/19 12:55:25;;;;;;;10.10;4.40;;;28.70;53.50;;;;;;5058437;28;20032;-68
2023/09/19 12:57:57;;;;;;;7.20;4.03;;;28.70;53.60;;;;;;5040039;28;20418;-68
2023/09/19 13:00:35;;;;;;;6.27;4.17;;;28.70;53.70;;;;;;5057472;28;20016;-68
2023/09/19 13:03:34;;;;;;;8.32;4.50;;;28.70;53.80;;;;;;5007801;28;20039;-68
2023/09/19 13:06:07;;;;;;;15.98;4.75;;;28.70;53.80;;;;;;5057971;28;20343;-69
2023/09/19 13:08:41;;;;;;;10.60;4.43;;;28.60;53.90;;;;;;5057638;28;20017;-69
2023/09/19 13:11:17;;;;;;;5.85;4.20;;;28.60;54.10;;;;;;5057232;28;20108;-68
2023/09/19 13:13:53;;;;;;;7.97;4.10;;;28.60;54.20;;;;;;5056988;28;20059;-69
2023/09/19 13:16:22;;;;;;;8.40;4.50;;;28.70;54.30;;;;;;5040769;28;20028;-69
2023/09/19 13:18:51;;;;;;;7.25;4.47;;;28.80;54.40;;;;;;5057055;28;20108;-69
2023/09/19 13:21:27;;;;;;;7.95;4.30;;;28.90;53.10;;;;;;5057305;28;20017;-69
2023/09/19 13:24:18;;;;;;;5.93;4.07;;;28.90;53.90;;;;;;5023091;28;20025;-68
2023/09/19 13:26:44;;;;;;;7.43;3.90;;;28.90;53.70;;;;;;5057821;28;20339;-69
2023/09/19 13:29:10;;;;;;;7.70;3.92;;;28.90;53.50;;;;;;5056885;28;20033;-68
2023/09/19 13:31:41;;;;;;;8.68;4.45;;;28.90;53.40;;;;;;5055660;28;20032;-69
2023/09/19 13:34:07;;;;;;;10.48;4.38;;;28.90;53.40;;;;;;5057293;28;20021;-69
2023/09/19 13:36:33;;;;;;;7.22;4.07;;;29.00;53.40;;;;;;5056738;28;20036;-68
2023/09/19 13:39:00;;;;;;;9.95;3.97;;;29.00;53.60;;;;;;5056671;28;20021;-69
2023/09/19 13:41:26;;;;;;;6.70;4.05;;;29.20;53.50;;;;;;5056627;28;20359;-69
2023/09/19 13:43:56;;;;;;;6.13;4.10;;;29.20;53.20;;;;;;5056911;28;20056;-69
2023/09/19 13:46:26;;;;;;;9.40;4.05;;;29.30;52.70;;;;;;5057163;28;20047;-69
2023/09/19 13:48:54;;;;;;;6.88;4.22;;;29.30;52.30;;;;;;5056423;28;20029;-68
2023/09/19 13:51:23;;;;;;;8.73;4.00;;;29.30;52.30;;;;;;5056469;28;20117;-68
2023/09/19 13:53:50;;;;;;;8.55;4.15;;;29.30;52.40;;;;;;5023226;28;20359;-69